sensor_id;sensor_type;location;lat;lon;timestamp;temperature;humidity
56298;DHT22;42208;6.376;-10.782;2022-08-21T00:01:54;24.00;99.90
56298;DHT22;42208;6.376;-10.782;2022-08-21T00:04:23;24.00;99.90
56298;DHT22;42208;6.376;-10.782;2022-08-21T00:06:57;24.00;99.90
56298;DHT22;42208;6.376;-10.782;2022-08-21T00:09:26;24.00;99.90
56298;DHT22;42208;6.376;-10.782;2022-08-21T00:11:54;23.90;99.90
56298;DHT22;42208;6.376;-10.782;2022-08-21T00:14:23;23.90;99.90
56298;DHT22;42208;6.376;-10.782;2022-08-21T00:16:51;23.90;99.90
56298;DHT22;42208;6.376;-10.782;2022-08-21T00:19:23;23.90;99.90
56298;DHT22;42208;6.376;-10.782;2022-08-21T00:21:53;24.00;99.90
56298;DHT22;42208;6.376;-10.782;2022-08-21T00:24:23;24.00;99.90
56298;DHT22;42208;6.376;-10.782;2022-08-21T00:26:52;24.00;99.90
56298;DHT22;42208;6.376;-10.782;2022-08-21T00:29:21;24.00;99.90
56298;DHT22;42208;6.376;-10.782;2022-08-21T00:31:49;24.00;99.90
56298;DHT22;42208;6.376;-10.782;2022-08-21T00:34:17;24.00;99.90
56298;DHT22;42208;6.376;-10.782;2022-08-21T00:36:46;24.00;99.90
56298;DHT22;42208;6.376;-10.782;2022-08-21T00:39:14;23.90;99.90
56298;DHT22;42208;6.376;-10.782;2022-08-21T00:41:43;23.90;99.90
56298;DHT22;42208;6.376;-10.782;2022-08-21T00:44:13;23.90;99.90
56298;DHT22;42208;6.376;-10.782;2022-08-21T00:46:42;23.90;99.90
56298;DHT22;42208;6.376;-10.782;2022-08-21T00:49:11;23.90;99.90
56298;DHT22;42208;6.376;-10.782;2022-08-21T00:52:00;23.90;99.90
56298;DHT22;42208;6.376;-10.782;2022-08-21T00:54:31;23.90;99.90
56298;DHT22;42208;6.376;-10.782;2022-08-21T00:57:05;23.90;99.90
56298;DHT22;42208;6.376;-10.782;2022-08-21T00:59:37;23.90;99.90
56298;DHT22;42208;6.376;-10.782;2022-08-21T01:02:08;23.90;99.90
56298;DHT22;42208;6.376;-10.782;2022-08-21T01:04:37;23.90;99.90
56298;DHT22;42208;6.376;-10.782;2022-08-21T01:07:05;23.80;99.90
56298;DHT22;42208;6.376;-10.782;2022-08-21T01:09:34;23.80;99.90
56298;DHT22;42208;6.376;-10.782;2022-08-21T01:12:03;23.90;99.90
56298;DHT22;42208;6.376;-10.782;2022-08-21T01:14:31;23.90;99.90
56298;DHT22;42208;6.376;-10.782;2022-08-21T01:17:01;23.90;99.90
56298;DHT22;42208;6.376;-10.782;2022-08-21T01:19:30;23.90;99.90
56298;DHT22;42208;6.376;-10.782;2022-08-21T01:21:58;23.80;99.90
56298;DHT22;42208;6.376;-10.782;2022-08-21T01:24:27;23.80;99.90
56298;DHT22;42208;6.376;-10.782;2022-08-21T01:26:55;23.80;99.90
56298;DHT22;42208;6.376;-10.782;2022-08-21T01:29:41;23.80;99.90
56298;DHT22;42208;6.376;-10.782;2022-08-21T01:32:14;23.70;99.90
56298;DHT22;42208;6.376;-10.782;2022-08-21T01:34:45;23.70;99.90
56298;DHT22;42208;6.376;-10.782;2022-08-21T01:37:15;23.70;99.90
56298;DHT22;42208;6.376;-10.782;2022-08-21T01:39:44;23.70;99.90
56298;DHT22;42208;6.376;-10.782;2022-08-21T01:42:13;23.70;99.90
56298;DHT22;42208;6.376;-10.782;2022-08-21T01:44:42;23.70;99.90
56298;DHT22;42208;6.376;-10.782;2022-08-21T01:47:13;23.70;99.90
56298;DHT22;42208;6.376;-10.782;2022-08-21T01:49:44;23.60;99.90
56298;DHT22;42208;6.376;-10.782;2022-08-21T01:52:13;23.60;99.90
56298;DHT22;42208;6.376;-10.782;2022-08-21T01:54:41;23.60;99.90
56298;DHT22;42208;6.376;-10.782;2022-08-21T01:57:12;23.60;99.90
56298;DHT22;42208;6.376;-10.782;2022-08-21T01:59:41;23.50;99.90
56298;DHT22;42208;6.376;-10.782;2022-08-21T02:02:09;23.60;99.90
56298;DHT22;42208;6.376;-10.782;2022-08-21T02:04:38;23.50;99.90
56298;DHT22;42208;6.376;-10.782;2022-08-21T02:07:07;23.60;99.90
56298;DHT22;42208;6.376;-10.782;2022-08-21T02:09:37;23.50;99.90
56298;DHT22;42208;6.376;-10.782;2022-08-21T02:12:06;23.50;99.90
56298;DHT22;42208;6.376;-10.782;2022-08-21T02:14:35;23.50;99.90
56298;DHT22;42208;6.376;-10.782;2022-08-21T02:17:04;23.60;99.90
56298;DHT22;42208;6.376;-10.782;2022-08-21T02:19:36;23.60;99.90
56298;DHT22;42208;6.376;-10.782;2022-08-21T02:22:09;23.50;99.90
56298;DHT22;42208;6.376;-10.782;2022-08-21T02:24:38;23.50;99.90
56298;DHT22;42208;6.376;-10.782;2022-08-21T02:27:25;23.50;99.90
56298;DHT22;42208;6.376;-10.782;2022-08-21T02:29:56;23.50;99.90
56298;DHT22;42208;6.376;-10.782;2022-08-21T02:32:25;23.50;99.90
56298;DHT22;42208;6.376;-10.782;2022-08-21T02:34:53;23.40;99.90
56298;DHT22;42208;6.376;-10.782;2022-08-21T02:37:23;23.40;99.90
56298;DHT22;42208;6.376;-10.782;2022-08-21T02:39:51;23.40;99.90
56298;DHT22;42208;6.376;-10.782;2022-08-21T02:42:20;23.40;99.90
56298;DHT22;42208;6.376;-10.782;2022-08-21T02:44:48;23.40;99.90
56298;DHT22;42208;6.376;-10.782;2022-08-21T02:47:16;23.50;99.90
56298;DHT22;42208;6.376;-10.782;2022-08-21T02:49:45;23.50;99.90
56298;DHT22;42208;6.376;-10.782;2022-08-21T02:52:13;23.50;99.90
56298;DHT22;42208;6.376;-10.782;2022-08-21T02:54:41;23.40;99.90
56298;DHT22;42208;6.376;-10.782;2022-08-21T02:57:09;23.40;99.90
56298;DHT22;42208;6.376;-10.782;2022-08-21T02:59:38;23.30;99.90
56298;DHT22;42208;6.376;-10.782;2022-08-21T03:02:06;23.40;99.90
56298;DHT22;42208;6.376;-10.782;2022-08-21T03:04:35;23.40;99.90
56298;DHT22;42208;6.376;-10.782;2022-08-21T03:07:03;23.50;99.90
56298;DHT22;42208;6.376;-10.782;2022-08-21T03:09:37;23.50;99.90
56298;DHT22;42208;6.376;-10.782;2022-08-21T03:12:17;23.50;99.90
56298;DHT22;42208;6.376;-10.782;2022-08-21T03:14:45;23.50;99.90
56298;DHT22;42208;6.376;-10.782;2022-08-21T03:17:13;23.60;99.90
56298;DHT22;42208;6.376;-10.782;2022-08-21T03:19:41;23.50;99.90
56298;DHT22;42208;6.376;-10.782;2022-08-21T03:22:10;23.50;99.90
56298;DHT22;42208;6.376;-10.782;2022-08-21T03:24:38;23.50;99.90
56298;DHT22;42208;6.376;-10.782;2022-08-21T03:27:10;23.50;99.90
56298;DHT22;42208;6.376;-10.782;2022-08-21T03:29:40;23.50;99.90
56298;DHT22;42208;6.376;-10.782;2022-08-21T03:32:09;23.50;99.90
56298;DHT22;42208;6.376;-10.782;2022-08-21T03:34:38;23.50;99.90
56298;DHT22;42208;6.376;-10.782;2022-08-21T03:37:08;23.40;99.90
56298;DHT22;42208;6.376;-10.782;2022-08-21T03:39:36;23.40;99.90
56298;DHT22;42208;6.376;-10.782;2022-08-21T03:42:05;23.40;99.90
56298;DHT22;42208;6.376;-10.782;2022-08-21T03:44:34;23.40;99.90
56298;DHT22;42208;6.376;-10.782;2022-08-21T03:47:03;23.40;99.90
56298;DHT22;42208;6.376;-10.782;2022-08-21T03:49:31;23.40;99.90
56298;DHT22;42208;6.376;-10.782;2022-08-21T03:52:00;23.40;99.90
56298;DHT22;42208;6.376;-10.782;2022-08-21T03:54:28;23.30;99.90
56298;DHT22;42208;6.376;-10.782;2022-08-21T03:56:57;23.40;99.90
56298;DHT22;42208;6.376;-10.782;2022-08-21T03:59:25;23.30;99.90
56298;DHT22;42208;6.376;-10.782;2022-08-21T04:01:55;23.30;99.90
56298;DHT22;42208;6.376;-10.782;2022-08-21T04:04:25;23.30;99.90
56298;DHT22;42208;6.376;-10.782;2022-08-21T04:06:55;23.30;99.90
56298;DHT22;42208;6.376;-10.782;2022-08-21T04:09:25;23.20;99.90
56298;DHT22;42208;6.376;-10.782;2022-08-21T04:11:53;23.10;99.90
56298;DHT22;42208;6.376;-10.782;2022-08-21T04:14:21;23.10;99.90
56298;DHT22;42208;6.376;-10.782;2022-08-21T04:16:50;23.10;99.90
56298;DHT22;42208;6.376;-10.782;2022-08-21T04:19:18;23.10;99.90
56298;DHT22;42208;6.376;-10.782;2022-08-21T04:21:46;23.10;99.90
56298;DHT22;42208;6.376;-10.782;2022-08-21T04:24:18;23.10;99.90
56298;DHT22;42208;6.376;-10.782;2022-08-21T04:26:46;23.10;99.90
56298;DHT22;42208;6.376;-10.782;2022-08-21T04:29:15;23.10;99.90
56298;DHT22;42208;6.376;-10.782;2022-08-21T04:31:43;23.00;99.90
56298;DHT22;42208;6.376;-10.782;2022-08-21T04:34:11;23.00;99.90
56298;DHT22;42208;6.376;-10.782;2022-08-21T04:36:39;23.00;99.90
56298;DHT22;42208;6.376;-10.782;2022-08-21T04:39:08;23.00;99.90
56298;DHT22;42208;6.376;-10.782;2022-08-21T04:41:36;23.00;99.90
56298;DHT22;42208;6.376;-10.782;2022-08-21T04:44:05;23.10;99.90
56298;DHT22;42208;6.376;-10.782;2022-08-21T04:46:33;23.10;99.90
56298;DHT22;42208;6.376;-10.782;2022-08-21T04:49:02;23.10;99.90
56298;DHT22;42208;6.376;-10.782;2022-08-21T04:51:35;23.10;99.90
56298;DHT22;42208;6.376;-10.782;2022-08-21T04:54:17;23.10;99.90
56298;DHT22;42208;6.376;-10.782;2022-08-21T04:57:06;23.10;99.90
56298;DHT22;42208;6.376;-10.782;2022-08-21T04:59:41;23.10;99.90
56298;DHT22;42208;6.376;-10.782;2022-08-21T05:02:11;23.10;99.90
56298;DHT22;42208;6.376;-10.782;2022-08-21T05:04:45;23.00;99.90
56298;DHT22;42208;6.376;-10.782;2022-08-21T05:07:25;23.10;99.90
56298;DHT22;42208;6.376;-10.782;2022-08-21T05:10:10;23.10;99.90
56298;DHT22;42208;6.376;-10.782;2022-08-21T05:12:41;23.00;99.90
56298;DHT22;42208;6.376;-10.782;2022-08-21T05:15:11;23.00;99.90
56298;DHT22;42208;6.376;-10.782;2022-08-21T05:17:41;23.10;99.90
56298;DHT22;42208;6.376;-10.782;2022-08-21T05:20:10;23.10;99.90
56298;DHT22;42208;6.376;-10.782;2022-08-21T05:22:39;23.10;99.90
56298;DHT22;42208;6.376;-10.782;2022-08-21T05:25:08;23.10;99.90
56298;DHT22;42208;6.376;-10.782;2022-08-21T05:27:38;23.10;99.90
56298;DHT22;42208;6.376;-10.782;2022-08-21T05:30:09;23.10;99.90
56298;DHT22;42208;6.376;-10.782;2022-08-21T05:32:38;23.20;99.90
56298;DHT22;42208;6.376;-10.782;2022-08-21T05:35:07;23.20;99.90
56298;DHT22;42208;6.376;-10.782;2022-08-21T05:37:36;23.20;99.90
56298;DHT22;42208;6.376;-10.782;2022-08-21T05:40:05;23.20;99.90
56298;DHT22;42208;6.376;-10.782;2022-08-21T05:42:50;23.30;99.90
56298;DHT22;42208;6.376;-10.782;2022-08-21T05:45:27;23.30;99.90
56298;DHT22;42208;6.376;-10.782;2022-08-21T05:48:15;23.30;99.90
56298;DHT22;42208;6.376;-10.782;2022-08-21T05:50:45;23.30;99.90
56298;DHT22;42208;6.376;-10.782;2022-08-21T05:53:15;23.30;99.90
56298;DHT22;42208;6.376;-10.782;2022-08-21T05:55:45;23.40;99.90
56298;DHT22;42208;6.376;-10.782;2022-08-21T05:58:15;23.30;99.90
56298;DHT22;42208;6.376;-10.782;2022-08-21T06:00:45;23.40;99.90
56298;DHT22;42208;6.376;-10.782;2022-08-21T06:03:19;23.40;99.90
56298;DHT22;42208;6.376;-10.782;2022-08-21T06:05:48;23.30;99.90
56298;DHT22;42208;6.376;-10.782;2022-08-21T06:08:18;23.30;99.90
56298;DHT22;42208;6.376;-10.782;2022-08-21T06:10:48;23.40;99.90
56298;DHT22;42208;6.376;-10.782;2022-08-21T06:13:18;23.40;99.90
56298;DHT22;42208;6.376;-10.782;2022-08-21T06:15:46;23.30;99.90
56298;DHT22;42208;6.376;-10.782;2022-08-21T06:18:15;23.40;99.90
56298;DHT22;42208;6.376;-10.782;2022-08-21T06:20:43;23.40;99.90
56298;DHT22;42208;6.376;-10.782;2022-08-21T06:23:12;23.30;99.90
56298;DHT22;42208;6.376;-10.782;2022-08-21T06:25:40;23.30;99.90
56298;DHT22;42208;6.376;-10.782;2022-08-21T06:28:09;23.40;99.90
56298;DHT22;42208;6.376;-10.782;2022-08-21T06:30:39;23.30;99.90
56298;DHT22;42208;6.376;-10.782;2022-08-21T06:33:07;23.30;99.90
56298;DHT22;42208;6.376;-10.782;2022-08-21T06:35:36;23.30;99.90
56298;DHT22;42208;6.376;-10.782;2022-08-21T06:38:08;23.30;99.90
56298;DHT22;42208;6.376;-10.782;2022-08-21T06:40:37;23.30;99.90
56298;DHT22;42208;6.376;-10.782;2022-08-21T06:43:16;23.30;99.90
56298;DHT22;42208;6.376;-10.782;2022-08-21T06:45:45;23.30;99.90
56298;DHT22;42208;6.376;-10.782;2022-08-21T06:48:13;23.30;99.90
56298;DHT22;42208;6.376;-10.782;2022-08-21T06:50:46;23.30;99.90
56298;DHT22;42208;6.376;-10.782;2022-08-21T06:53:19;23.20;99.90
56298;DHT22;42208;6.376;-10.782;2022-08-21T06:55:48;23.20;99.90
56298;DHT22;42208;6.376;-10.782;2022-08-21T06:58:17;23.30;99.90
56298;DHT22;42208;6.376;-10.782;2022-08-21T07:00:48;23.30;99.90
56298;DHT22;42208;6.376;-10.782;2022-08-21T07:03:25;23.30;99.90
56298;DHT22;42208;6.376;-10.782;2022-08-21T07:05:54;23.40;99.90
56298;DHT22;42208;6.376;-10.782;2022-08-21T07:08:22;23.40;99.90
56298;DHT22;42208;6.376;-10.782;2022-08-21T07:10:55;23.40;99.90
56298;DHT22;42208;6.376;-10.782;2022-08-21T07:13:24;23.40;99.90
56298;DHT22;42208;6.376;-10.782;2022-08-21T07:15:52;23.40;99.90
56298;DHT22;42208;6.376;-10.782;2022-08-21T07:18:21;23.50;99.90
56298;DHT22;42208;6.376;-10.782;2022-08-21T07:20:49;23.50;99.90
56298;DHT22;42208;6.376;-10.782;2022-08-21T07:23:31;23.50;99.90
56298;DHT22;42208;6.376;-10.782;2022-08-21T07:26:00;23.60;99.90
56298;DHT22;42208;6.376;-10.782;2022-08-21T07:28:29;23.60;99.90
56298;DHT22;42208;6.376;-10.782;2022-08-21T07:30:59;23.60;99.90
56298;DHT22;42208;6.376;-10.782;2022-08-21T07:33:31;23.60;99.90
56298;DHT22;42208;6.376;-10.782;2022-08-21T07:36:00;23.70;99.90
56298;DHT22;42208;6.376;-10.782;2022-08-21T07:38:28;23.70;99.90
56298;DHT22;42208;6.376;-10.782;2022-08-21T07:41:00;23.80;99.90
56298;DHT22;42208;6.376;-10.782;2022-08-21T07:43:30;23.80;99.90
56298;DHT22;42208;6.376;-10.782;2022-08-21T07:45:58;23.80;99.90
56298;DHT22;42208;6.376;-10.782;2022-08-21T07:48:26;23.80;99.90
56298;DHT22;42208;6.376;-10.782;2022-08-21T07:51:07;23.80;99.90
56298;DHT22;42208;6.376;-10.782;2022-08-21T07:53:37;23.80;99.90
56298;DHT22;42208;6.376;-10.782;2022-08-21T07:56:06;23.80;99.90
56298;DHT22;42208;6.376;-10.782;2022-08-21T07:58:35;23.90;99.90
56298;DHT22;42208;6.376;-10.782;2022-08-21T08:01:05;23.90;99.90
56298;DHT22;42208;6.376;-10.782;2022-08-21T08:03:34;23.90;99.90
56298;DHT22;42208;6.376;-10.782;2022-08-21T08:06:02;23.90;99.90
56298;DHT22;42208;6.376;-10.782;2022-08-21T08:08:32;24.00;99.90
56298;DHT22;42208;6.376;-10.782;2022-08-21T08:11:00;24.10;99.90
56298;DHT22;42208;6.376;-10.782;2022-08-21T08:13:29;24.10;99.90
56298;DHT22;42208;6.376;-10.782;2022-08-21T08:15:57;24.20;99.90
56298;DHT22;42208;6.376;-10.782;2022-08-21T08:18:25;24.20;99.90
56298;DHT22;42208;6.376;-10.782;2022-08-21T08:20:54;24.20;99.90
56298;DHT22;42208;6.376;-10.782;2022-08-21T08:23:22;24.30;99.90
56298;DHT22;42208;6.376;-10.782;2022-08-21T08:25:50;24.30;99.90
56298;DHT22;42208;6.376;-10.782;2022-08-21T08:28:19;24.30;99.90
56298;DHT22;42208;6.376;-10.782;2022-08-21T08:30:47;24.40;99.90
56298;DHT22;42208;6.376;-10.782;2022-08-21T08:33:16;24.50;99.90
56298;DHT22;42208;6.376;-10.782;2022-08-21T08:35:46;24.60;99.90
56298;DHT22;42208;6.376;-10.782;2022-08-21T08:38:18;24.60;99.90
56298;DHT22;42208;6.376;-10.782;2022-08-21T08:41:10;24.80;99.90
56298;DHT22;42208;6.376;-10.782;2022-08-21T08:43:42;24.90;99.90
56298;DHT22;42208;6.376;-10.782;2022-08-21T08:46:25;25.00;99.90
56298;DHT22;42208;6.376;-10.782;2022-08-21T08:52:03;25.10;99.90
56298;DHT22;42208;6.376;-10.782;2022-08-21T08:54:45;25.20;99.90
56298;DHT22;42208;6.376;-10.782;2022-08-21T08:57:19;25.20;99.90
56298;DHT22;42208;6.376;-10.782;2022-08-21T08:59:53;25.30;99.90
56298;DHT22;42208;6.376;-10.782;2022-08-21T09:02:23;25.30;99.90
56298;DHT22;42208;6.376;-10.782;2022-08-21T09:04:54;25.30;99.90
56298;DHT22;42208;6.376;-10.782;2022-08-21T09:10:10;25.30;99.90
56298;DHT22;42208;6.376;-10.782;2022-08-21T09:19:07;25.50;99.90
56298;DHT22;42208;6.376;-10.782;2022-08-21T09:21:30;25.50;99.90
56298;DHT22;42208;6.376;-10.782;2022-08-21T09:24:29;25.60;99.90
56298;DHT22;42208;6.376;-10.782;2022-08-21T09:27:13;25.70;99.90
56298;DHT22;42208;6.376;-10.782;2022-08-21T09:29:47;25.70;99.90
56298;DHT22;42208;6.376;-10.782;2022-08-21T09:32:18;25.80;99.90
56298;DHT22;42208;6.376;-10.782;2022-08-21T09:35:03;25.90;99.90
56298;DHT22;42208;6.376;-10.782;2022-08-21T09:37:34;26.00;99.90
56298;DHT22;42208;6.376;-10.782;2022-08-21T09:40:20;26.00;99.90
56298;DHT22;42208;6.376;-10.782;2022-08-21T09:43:19;25.90;99.90
56298;DHT22;42208;6.376;-10.782;2022-08-21T09:46:00;26.00;99.90
56298;DHT22;42208;6.376;-10.782;2022-08-21T09:48:29;26.10;99.90
56298;DHT22;42208;6.376;-10.782;2022-08-21T09:51:15;26.10;99.90
56298;DHT22;42208;6.376;-10.782;2022-08-21T09:54:32;26.00;99.90
56298;DHT22;42208;6.376;-10.782;2022-08-21T09:59:39;26.00;99.90
56298;DHT22;42208;6.376;-10.782;2022-08-21T10:02:30;26.00;99.90
56298;DHT22;42208;6.376;-10.782;2022-08-21T10:05:22;26.10;99.90
56298;DHT22;42208;6.376;-10.782;2022-08-21T10:07:52;26.10;99.90
56298;DHT22;42208;6.376;-10.782;2022-08-21T10:10:28;26.20;99.90
56298;DHT22;42208;6.376;-10.782;2022-08-21T10:13:21;26.10;99.90
56298;DHT22;42208;6.376;-10.782;2022-08-21T10:25:08;26.50;99.90
56298;DHT22;42208;6.376;-10.782;2022-08-21T10:42:14;26.70;99.90
56298;DHT22;42208;6.376;-10.782;2022-08-21T10:47:34;26.90;99.90
56298;DHT22;42208;6.376;-10.782;2022-08-21T10:55:36;26.90;99.90
56298;DHT22;42208;6.376;-10.782;2022-08-21T10:58:12;26.90;99.90
56298;DHT22;42208;6.376;-10.782;2022-08-21T11:00:49;26.90;99.90
56298;DHT22;42208;6.376;-10.782;2022-08-21T11:03:33;26.90;99.90
56298;DHT22;42208;6.376;-10.782;2022-08-21T11:06:15;27.10;99.90
56298;DHT22;42208;6.376;-10.782;2022-08-21T11:08:52;27.10;99.90
56298;DHT22;42208;6.376;-10.782;2022-08-21T11:11:32;27.10;99.90
56298;DHT22;42208;6.376;-10.782;2022-08-21T11:14:30;27.20;99.90
56298;DHT22;42208;6.376;-10.782;2022-08-21T11:17:12;27.20;99.90
56298;DHT22;42208;6.376;-10.782;2022-08-21T11:20:22;27.20;99.90
56298;DHT22;42208;6.376;-10.782;2022-08-21T11:23:03;27.20;99.90
56298;DHT22;42208;6.376;-10.782;2022-08-21T11:25:38;27.20;99.90
56298;DHT22;42208;6.376;-10.782;2022-08-21T11:36:29;27.20;99.90
56298;DHT22;42208;6.376;-10.782;2022-08-21T11:39:25;27.20;99.90
56298;DHT22;42208;6.376;-10.782;2022-08-21T11:42:06;27.20;99.90
56298;DHT22;42208;6.376;-10.782;2022-08-21T11:48:16;27.30;99.90
56298;DHT22;42208;6.376;-10.782;2022-08-21T11:50:50;27.30;99.90
56298;DHT22;42208;6.376;-10.782;2022-08-21T11:53:55;27.30;99.90
56298;DHT22;42208;6.376;-10.782;2022-08-21T11:56:41;27.30;99.90
56298;DHT22;42208;6.376;-10.782;2022-08-21T11:59:35;27.30;99.90
56298;DHT22;42208;6.376;-10.782;2022-08-21T12:02:20;27.40;99.90
56298;DHT22;42208;6.376;-10.782;2022-08-21T12:05:00;27.30;99.90
56298;DHT22;42208;6.376;-10.782;2022-08-21T12:07:44;27.20;99.90
56298;DHT22;42208;6.376;-10.782;2022-08-21T12:10:16;27.10;99.90
56298;DHT22;42208;6.376;-10.782;2022-08-21T12:12:45;27.10;99.90
56298;DHT22;42208;6.376;-10.782;2022-08-21T12:18:01;27.20;99.90
56298;DHT22;42208;6.376;-10.782;2022-08-21T12:23:16;27.20;99.90
56298;DHT22;42208;6.376;-10.782;2022-08-21T12:25:59;27.10;99.90
56298;DHT22;42208;6.376;-10.782;2022-08-21T12:28:29;27.10;99.90
56298;DHT22;42208;6.376;-10.782;2022-08-21T12:30:58;27.00;99.90
56298;DHT22;42208;6.376;-10.782;2022-08-21T12:33:35;27.00;99.90
56298;DHT22;42208;6.376;-10.782;2022-08-21T12:38:59;26.90;99.90
56298;DHT22;42208;6.376;-10.782;2022-08-21T12:41:34;26.90;99.90
56298;DHT22;42208;6.376;-10.782;2022-08-21T12:44:56;26.90;99.90
56298;DHT22;42208;6.376;-10.782;2022-08-21T12:47:03;26.90;99.90
56298;DHT22;42208;6.376;-10.782;2022-08-21T12:49:56;26.90;99.90
56298;DHT22;42208;6.376;-10.782;2022-08-21T12:52:34;27.10;99.90
56298;DHT22;42208;6.376;-10.782;2022-08-21T12:55:10;27.20;99.90
56298;DHT22;42208;6.376;-10.782;2022-08-21T12:57:40;27.20;99.90
56298;DHT22;42208;6.376;-10.782;2022-08-21T13:00:11;27.20;99.90
56298;DHT22;42208;6.376;-10.782;2022-08-21T13:02:46;27.10;99.90
56298;DHT22;42208;6.376;-10.782;2022-08-21T13:05:35;27.20;99.90
56298;DHT22;42208;6.376;-10.782;2022-08-21T13:08:09;27.20;99.90
56298;DHT22;42208;6.376;-10.782;2022-08-21T13:10:40;27.20;99.90
56298;DHT22;42208;6.376;-10.782;2022-08-21T13:13:27;27.20;99.90
56298;DHT22;42208;6.376;-10.782;2022-08-21T13:16:04;27.00;99.90
56298;DHT22;42208;6.376;-10.782;2022-08-21T13:18:53;27.10;99.90
56298;DHT22;42208;6.376;-10.782;2022-08-21T13:21:34;27.00;99.90
56298;DHT22;42208;6.376;-10.782;2022-08-21T13:27:36;27.30;99.90
56298;DHT22;42208;6.376;-10.782;2022-08-21T13:32:43;27.50;99.90
56298;DHT22;42208;6.376;-10.782;2022-08-21T13:37:44;27.50;99.90
56298;DHT22;42208;6.376;-10.782;2022-08-21T13:40:17;27.60;99.90
56298;DHT22;42208;6.376;-10.782;2022-08-21T13:42:48;27.70;99.90
56298;DHT22;42208;6.376;-10.782;2022-08-21T13:45:26;27.70;99.90
56298;DHT22;42208;6.376;-10.782;2022-08-21T13:47:55;27.70;99.90
56298;DHT22;42208;6.376;-10.782;2022-08-21T13:50:25;27.60;99.90
56298;DHT22;42208;6.376;-10.782;2022-08-21T13:53:03;27.60;99.90
56298;DHT22;42208;6.376;-10.782;2022-08-21T13:55:41;27.50;99.90
56298;DHT22;42208;6.376;-10.782;2022-08-21T13:58:11;27.70;99.90
56298;DHT22;42208;6.376;-10.782;2022-08-21T14:00:48;27.70;99.90
56298;DHT22;42208;6.376;-10.782;2022-08-21T14:03:47;27.80;99.90
56298;DHT22;42208;6.376;-10.782;2022-08-21T14:06:22;27.80;99.90
56298;DHT22;42208;6.376;-10.782;2022-08-21T14:09:00;27.90;99.90
56298;DHT22;42208;6.376;-10.782;2022-08-21T14:11:33;28.00;99.90
56298;DHT22;42208;6.376;-10.782;2022-08-21T14:14:18;27.90;99.90
56298;DHT22;42208;6.376;-10.782;2022-08-21T14:16:57;27.90;99.90
56298;DHT22;42208;6.376;-10.782;2022-08-21T14:19:34;27.70;99.90
56298;DHT22;42208;6.376;-10.782;2022-08-21T14:27:44;27.70;99.90
56298;DHT22;42208;6.376;-10.782;2022-08-21T14:30:28;27.80;99.90
56298;DHT22;42208;6.376;-10.782;2022-08-21T14:32:56;27.90;99.90
56298;DHT22;42208;6.376;-10.782;2022-08-21T14:35:25;27.90;99.90
56298;DHT22;42208;6.376;-10.782;2022-08-21T14:37:54;27.90;99.90
56298;DHT22;42208;6.376;-10.782;2022-08-21T14:40:24;28.10;99.90
56298;DHT22;42208;6.376;-10.782;2022-08-21T14:42:53;28.00;99.90
56298;DHT22;42208;6.376;-10.782;2022-08-21T14:45:29;28.00;99.90
56298;DHT22;42208;6.376;-10.782;2022-08-21T14:47:58;28.00;99.90
56298;DHT22;42208;6.376;-10.782;2022-08-21T14:50:27;28.00;99.90
56298;DHT22;42208;6.376;-10.782;2022-08-21T14:52:55;28.10;99.90
56298;DHT22;42208;6.376;-10.782;2022-08-21T14:55:24;28.00;99.90
56298;DHT22;42208;6.376;-10.782;2022-08-21T14:57:55;28.20;99.90
56298;DHT22;42208;6.376;-10.782;2022-08-21T15:00:25;28.10;99.90
56298;DHT22;42208;6.376;-10.782;2022-08-21T15:03:03;28.20;99.90
56298;DHT22;42208;6.376;-10.782;2022-08-21T15:05:56;28.10;99.90
56298;DHT22;42208;6.376;-10.782;2022-08-21T15:08:24;28.20;99.90
56298;DHT22;42208;6.376;-10.782;2022-08-21T15:10:53;28.20;99.90
56298;DHT22;42208;6.376;-10.782;2022-08-21T15:13:39;28.30;99.90
56298;DHT22;42208;6.376;-10.782;2022-08-21T15:16:09;28.30;99.90
56298;DHT22;42208;6.376;-10.782;2022-08-21T15:18:37;28.60;99.90
56298;DHT22;42208;6.376;-10.782;2022-08-21T15:21:06;28.50;99.90
56298;DHT22;42208;6.376;-10.782;2022-08-21T15:23:34;28.70;99.90
56298;DHT22;42208;6.376;-10.782;2022-08-21T15:26:07;28.60;99.90
56298;DHT22;42208;6.376;-10.782;2022-08-21T15:28:35;28.60;99.90
56298;DHT22;42208;6.376;-10.782;2022-08-21T15:31:05;28.80;99.90
56298;DHT22;42208;6.376;-10.782;2022-08-21T15:33:33;29.00;99.90
56298;DHT22;42208;6.376;-10.782;2022-08-21T15:36:02;29.00;99.90
56298;DHT22;42208;6.376;-10.782;2022-08-21T15:38:30;29.00;99.90
56298;DHT22;42208;6.376;-10.782;2022-08-21T15:40:58;29.20;99.90
56298;DHT22;42208;6.376;-10.782;2022-08-21T15:43:39;29.30;99.90
56298;DHT22;42208;6.376;-10.782;2022-08-21T15:46:11;29.20;99.90
56298;DHT22;42208;6.376;-10.782;2022-08-21T15:48:40;29.10;99.90
56298;DHT22;42208;6.376;-10.782;2022-08-21T15:51:10;29.00;99.90
56298;DHT22;42208;6.376;-10.782;2022-08-21T15:53:39;28.60;99.90
56298;DHT22;42208;6.376;-10.782;2022-08-21T15:56:36;28.70;99.90
56298;DHT22;42208;6.376;-10.782;2022-08-21T15:59:09;28.70;99.90
56298;DHT22;42208;6.376;-10.782;2022-08-21T16:01:40;28.60;99.90
56298;DHT22;42208;6.376;-10.782;2022-08-21T16:04:19;28.50;99.90
56298;DHT22;42208;6.376;-10.782;2022-08-21T16:06:47;28.20;99.90
56298;DHT22;42208;6.376;-10.782;2022-08-21T16:09:22;28.10;99.90
56298;DHT22;42208;6.376;-10.782;2022-08-21T16:11:51;28.10;99.90
56298;DHT22;42208;6.376;-10.782;2022-08-21T16:14:19;27.80;99.90
56298;DHT22;42208;6.376;-10.782;2022-08-21T16:16:48;27.60;99.90
56298;DHT22;42208;6.376;-10.782;2022-08-21T16:19:16;27.60;99.90
56298;DHT22;42208;6.376;-10.782;2022-08-21T16:21:44;27.60;99.90
56298;DHT22;42208;6.376;-10.782;2022-08-21T16:24:13;27.60;99.90
56298;DHT22;42208;6.376;-10.782;2022-08-21T16:26:41;27.70;99.90
56298;DHT22;42208;6.376;-10.782;2022-08-21T16:29:10;27.70;99.90
56298;DHT22;42208;6.376;-10.782;2022-08-21T16:31:40;27.70;99.90
56298;DHT22;42208;6.376;-10.782;2022-08-21T16:34:12;27.80;99.90
56298;DHT22;42208;6.376;-10.782;2022-08-21T16:36:43;28.00;99.90
56298;DHT22;42208;6.376;-10.782;2022-08-21T16:39:11;28.00;99.90
56298;DHT22;42208;6.376;-10.782;2022-08-21T16:41:40;28.20;99.90
56298;DHT22;42208;6.376;-10.782;2022-08-21T16:44:08;28.10;99.90
56298;DHT22;42208;6.376;-10.782;2022-08-21T16:46:39;28.20;99.90
56298;DHT22;42208;6.376;-10.782;2022-08-21T16:49:08;28.10;99.90
56298;DHT22;42208;6.376;-10.782;2022-08-21T16:51:37;28.00;99.90
56298;DHT22;42208;6.376;-10.782;2022-08-21T16:54:05;28.00;99.90
56298;DHT22;42208;6.376;-10.782;2022-08-21T16:56:33;27.80;99.90
56298;DHT22;42208;6.376;-10.782;2022-08-21T16:59:06;27.70;99.90
56298;DHT22;42208;6.376;-10.782;2022-08-21T17:01:35;27.90;99.90
56298;DHT22;42208;6.376;-10.782;2022-08-21T17:04:10;27.90;99.90
56298;DHT22;42208;6.376;-10.782;2022-08-21T17:06:38;28.00;99.90
56298;DHT22;42208;6.376;-10.782;2022-08-21T17:09:06;28.00;99.90
56298;DHT22;42208;6.376;-10.782;2022-08-21T17:11:40;28.60;99.90